sensor_id;sensor_type;location;lat;lon;timestamp;P1;durP1;ratioP1;P2;durP2;ratioP2
13230;SDS011;6681;53.254;10.398;2022-07-03T00:01:58;1.10;;;0.67;;
13230;SDS011;6681;53.254;10.398;2022-07-03T00:04:24;2.43;;;1.13;;
13230;SDS011;6681;53.254;10.398;2022-07-03T00:06:49;1.47;;;1.03;;
13230;SDS011;6681;53.254;10.398;2022-07-03T00:09:15;1.67;;;1.57;;
13230;SDS011;6681;53.254;10.398;2022-07-03T00:11:42;3.30;;;0.97;;
13230;SDS011;6681;53.254;10.398;2022-07-03T00:14:07;3.50;;;1.30;;
13230;SDS011;6681;53.254;10.398;2022-07-03T00:16:33;2.30;;;1.20;;
13230;SDS011;6681;53.254;10.398;2022-07-03T00:18:59;2.27;;;1.03;;
13230;SDS011;6681;53.254;10.398;2022-07-03T00:21:29;1.80;;;1.17;;
13230;SDS011;6681;53.254;10.398;2022-07-03T00:24:07;0.60;;;0.60;;
13230;SDS011;6681;53.254;10.398;2022-07-03T00:26:37;1.33;;;1.23;;
13230;SDS011;6681;53.254;10.398;2022-07-03T00:29:04;1.23;;;1.13;;
13230;SDS011;6681;53.254;10.398;2022-07-03T00:31:32;1.20;;;1.00;;
13230;SDS011;6681;53.254;10.398;2022-07-03T00:33:59;1.00;;;1.00;;
13230;SDS011;6681;53.254;10.398;2022-07-03T00:36:26;0.73;;;0.70;;
13230;SDS011;6681;53.254;10.398;2022-07-03T00:38:59;1.33;;;1.07;;
13230;SDS011;6681;53.254;10.398;2022-07-03T00:41:26;2.37;;;1.53;;
13230;SDS011;6681;53.254;10.398;2022-07-03T00:43:53;1.87;;;1.03;;
13230;SDS011;6681;53.254;10.398;2022-07-03T00:46:21;2.67;;;1.00;;
13230;SDS011;6681;53.254;10.398;2022-07-03T00:48:48;0.90;;;0.80;;
13230;SDS011;6681;53.254;10.398;2022-07-03T00:51:15;3.57;;;1.03;;
13230;SDS011;6681;53.254;10.398;2022-07-03T00:53:51;2.30;;;0.80;;
13230;SDS011;6681;53.254;10.398;2022-07-03T00:56:28;2.73;;;0.90;;
13230;SDS011;6681;53.254;10.398;2022-07-03T00:58:59;0.80;;;0.80;;
13230;SDS011;6681;53.254;10.398;2022-07-03T01:01:27;3.10;;;1.03;;
13230;SDS011;6681;53.254;10.398;2022-07-03T01:06:33;1.03;;;0.93;;
13230;SDS011;6681;53.254;10.398;2022-07-03T01:09:04;4.40;;;1.03;;
13230;SDS011;6681;53.254;10.398;2022-07-03T01:11:38;1.00;;;1.00;;
13230;SDS011;6681;53.254;10.398;2022-07-03T01:27:07;1.47;;;0.90;;
13230;SDS011;6681;53.254;10.398;2022-07-03T01:29:52;1.03;;;1.03;;
13230;SDS011;6681;53.254;10.398;2022-07-03T01:32:32;0.93;;;0.93;;
13230;SDS011;6681;53.254;10.398;2022-07-03T01:35:03;0.97;;;0.97;;
13230;SDS011;6681;53.254;10.398;2022-07-03T01:37:31;1.13;;;1.13;;
13230;SDS011;6681;53.254;10.398;2022-07-03T01:40:03;1.63;;;1.53;;
13230;SDS011;6681;53.254;10.398;2022-07-03T01:42:32;1.03;;;1.00;;
13230;SDS011;6681;53.254;10.398;2022-07-03T01:44:59;2.93;;;1.10;;
13230;SDS011;6681;53.254;10.398;2022-07-03T01:47:26;2.03;;;1.63;;
13230;SDS011;6681;53.254;10.398;2022-07-03T01:49:53;1.90;;;0.83;;
13230;SDS011;6681;53.254;10.398;2022-07-03T01:52:22;2.87;;;1.20;;
13230;SDS011;6681;53.254;10.398;2022-07-03T01:54:48;2.47;;;1.07;;
13230;SDS011;6681;53.254;10.398;2022-07-03T01:57:14;1.53;;;1.13;;
13230;SDS011;6681;53.254;10.398;2022-07-03T01:59:40;3.93;;;1.70;;
13230;SDS011;6681;53.254;10.398;2022-07-03T02:02:14;1.80;;;1.40;;
13230;SDS011;6681;53.254;10.398;2022-07-03T02:04:50;0.80;;;0.80;;
13230;SDS011;6681;53.254;10.398;2022-07-03T02:07:39;1.20;;;1.20;;
13230;SDS011;6681;53.254;10.398;2022-07-03T02:10:15;1.53;;;1.40;;
13230;SDS011;6681;53.254;10.398;2022-07-03T02:12:55;1.37;;;1.03;;
13230;SDS011;6681;53.254;10.398;2022-07-03T02:15:31;1.80;;;1.30;;
13230;SDS011;6681;53.254;10.398;2022-07-03T02:18:41;1.23;;;1.13;;
13230;SDS011;6681;53.254;10.398;2022-07-03T02:23:48;1.20;;;1.20;;
13230;SDS011;6681;53.254;10.398;2022-07-03T02:26:16;1.30;;;1.20;;
13230;SDS011;6681;53.254;10.398;2022-07-03T02:28:50;1.13;;;1.13;;
13230;SDS011;6681;53.254;10.398;2022-07-03T02:31:33;1.30;;;1.30;;
13230;SDS011;6681;53.254;10.398;2022-07-03T02:34:04;1.70;;;1.60;;
13230;SDS011;6681;53.254;10.398;2022-07-03T02:36:31;2.07;;;1.50;;
13230;SDS011;6681;53.254;10.398;2022-07-03T02:38:59;1.80;;;0.90;;
13230;SDS011;6681;53.254;10.398;2022-07-03T02:50:23;1.90;;;1.37;;
13230;SDS011;6681;53.254;10.398;2022-07-03T02:53:06;2.20;;;1.23;;
13230;SDS011;6681;53.254;10.398;2022-07-03T02:55:40;1.57;;;1.27;;
13230;SDS011;6681;53.254;10.398;2022-07-03T02:58:19;1.43;;;1.20;;
13230;SDS011;6681;53.254;10.398;2022-07-03T03:03:39;2.07;;;1.10;;
13230;SDS011;6681;53.254;10.398;2022-07-03T03:06:15;1.63;;;1.53;;
13230;SDS011;6681;53.254;10.398;2022-07-03T03:08:48;1.10;;;1.10;;
13230;SDS011;6681;53.254;10.398;2022-07-03T03:13:45;2.73;;;1.10;;
13230;SDS011;6681;53.254;10.398;2022-07-03T03:16:15;1.40;;;1.30;;
13230;SDS011;6681;53.254;10.398;2022-07-03T03:18:41;1.33;;;1.30;;
13230;SDS011;6681;53.254;10.398;2022-07-03T03:21:10;1.53;;;1.43;;
13230;SDS011;6681;53.254;10.398;2022-07-03T03:23:48;2.00;;;1.17;;
13230;SDS011;6681;53.254;10.398;2022-07-03T03:26:21;3.53;;;3.10;;
13230;SDS011;6681;53.254;10.398;2022-07-03T03:28:48;2.07;;;1.50;;
13230;SDS011;6681;53.254;10.398;2022-07-03T03:31:15;2.57;;;1.30;;
13230;SDS011;6681;53.254;10.398;2022-07-03T03:33:44;1.50;;;1.40;;
13230;SDS011;6681;53.254;10.398;2022-07-03T03:36:12;1.10;;;1.10;;
13230;SDS011;6681;53.254;10.398;2022-07-03T03:38:39;1.23;;;1.23;;
13230;SDS011;6681;53.254;10.398;2022-07-03T03:41:05;2.07;;;1.20;;
13230;SDS011;6681;53.254;10.398;2022-07-03T03:43:32;1.70;;;1.60;;
13230;SDS011;6681;53.254;10.398;2022-07-03T03:45:59;2.10;;;1.40;;
13230;SDS011;6681;53.254;10.398;2022-07-03T03:48:28;1.27;;;1.17;;
13230;SDS011;6681;53.254;10.398;2022-07-03T03:50:56;1.33;;;1.23;;
13230;SDS011;6681;53.254;10.398;2022-07-03T03:53:21;2.47;;;1.17;;
13230;SDS011;6681;53.254;10.398;2022-07-03T03:55:53;1.90;;;1.80;;
13230;SDS011;6681;53.254;10.398;2022-07-03T03:58:32;1.70;;;1.40;;
13230;SDS011;6681;53.254;10.398;2022-07-03T04:01:00;2.47;;;1.60;;
13230;SDS011;6681;53.254;10.398;2022-07-03T04:03:26;1.67;;;1.57;;
13230;SDS011;6681;53.254;10.398;2022-07-03T04:05:53;4.03;;;1.73;;
13230;SDS011;6681;53.254;10.398;2022-07-03T04:08:19;2.47;;;2.17;;
13230;SDS011;6681;53.254;10.398;2022-07-03T04:10:46;5.20;;;1.97;;
13230;SDS011;6681;53.254;10.398;2022-07-03T04:13:12;2.13;;;1.77;;
13230;SDS011;6681;53.254;10.398;2022-07-03T04:15:39;2.57;;;1.37;;
13230;SDS011;6681;53.254;10.398;2022-07-03T04:18:04;3.90;;;1.83;;
13230;SDS011;6681;53.254;10.398;2022-07-03T04:20:30;5.60;;;1.67;;
13230;SDS011;6681;53.254;10.398;2022-07-03T04:22:59;2.80;;;1.50;;
13230;SDS011;6681;53.254;10.398;2022-07-03T04:25:25;1.20;;;1.20;;
13230;SDS011;6681;53.254;10.398;2022-07-03T04:27:51;1.60;;;1.50;;
13230;SDS011;6681;53.254;10.398;2022-07-03T04:30:17;1.80;;;1.70;;
13230;SDS011;6681;53.254;10.398;2022-07-03T04:32:43;4.37;;;1.33;;
13230;SDS011;6681;53.254;10.398;2022-07-03T04:35:08;3.30;;;1.93;;
13230;SDS011;6681;53.254;10.398;2022-07-03T04:37:34;1.90;;;1.80;;
13230;SDS011;6681;53.254;10.398;2022-07-03T04:40:00;1.93;;;1.83;;
13230;SDS011;6681;53.254;10.398;2022-07-03T04:42:26;3.50;;;1.90;;
13230;SDS011;6681;53.254;10.398;2022-07-03T04:44:51;1.60;;;1.33;;
13230;SDS011;6681;53.254;10.398;2022-07-03T04:47:17;1.67;;;1.57;;
13230;SDS011;6681;53.254;10.398;2022-07-03T04:49:43;6.50;;;1.87;;
13230;SDS011;6681;53.254;10.398;2022-07-03T04:52:10;2.73;;;1.83;;
13230;SDS011;6681;53.254;10.398;2022-07-03T04:54:36;3.13;;;1.40;;
13230;SDS011;6681;53.254;10.398;2022-07-03T04:57:02;1.80;;;1.70;;
13230;SDS011;6681;53.254;10.398;2022-07-03T04:59:28;2.40;;;1.63;;
13230;SDS011;6681;53.254;10.398;2022-07-03T05:01:53;1.67;;;1.57;;
13230;SDS011;6681;53.254;10.398;2022-07-03T05:04:19;1.83;;;1.73;;
13230;SDS011;6681;53.254;10.398;2022-07-03T05:06:45;2.10;;;2.00;;
13230;SDS011;6681;53.254;10.398;2022-07-03T05:09:10;1.43;;;1.33;;
13230;SDS011;6681;53.254;10.398;2022-07-03T05:11:36;3.17;;;1.97;;
13230;SDS011;6681;53.254;10.398;2022-07-03T05:14:02;1.63;;;1.47;;
13230;SDS011;6681;53.254;10.398;2022-07-03T05:16:29;2.07;;;1.63;;
13230;SDS011;6681;53.254;10.398;2022-07-03T05:18:54;2.77;;;2.10;;
13230;SDS011;6681;53.254;10.398;2022-07-03T05:21:20;3.53;;;1.23;;
13230;SDS011;6681;53.254;10.398;2022-07-03T05:23:45;1.37;;;1.30;;
13230;SDS011;6681;53.254;10.398;2022-07-03T05:26:11;1.93;;;1.70;;
13230;SDS011;6681;53.254;10.398;2022-07-03T05:28:37;5.93;;;2.23;;
13230;SDS011;6681;53.254;10.398;2022-07-03T05:31:02;1.80;;;1.70;;
13230;SDS011;6681;53.254;10.398;2022-07-03T05:33:28;1.50;;;1.50;;
13230;SDS011;6681;53.254;10.398;2022-07-03T05:35:57;1.60;;;1.50;;
13230;SDS011;6681;53.254;10.398;2022-07-03T05:38:23;4.43;;;2.10;;
13230;SDS011;6681;53.254;10.398;2022-07-03T05:41:08;3.97;;;1.60;;
13230;SDS011;6681;53.254;10.398;2022-07-03T05:43:33;2.37;;;1.63;;
13230;SDS011;6681;53.254;10.398;2022-07-03T05:45:59;1.43;;;1.37;;
13230;SDS011;6681;53.254;10.398;2022-07-03T05:48:25;1.67;;;1.57;;
13230;SDS011;6681;53.254;10.398;2022-07-03T05:50:50;1.77;;;1.43;;
13230;SDS011;6681;53.254;10.398;2022-07-03T05:53:16;2.33;;;2.23;;
13230;SDS011;6681;53.254;10.398;2022-07-03T05:55:42;2.10;;;1.60;;
13230;SDS011;6681;53.254;10.398;2022-07-03T05:58:08;1.37;;;1.37;;
13230;SDS011;6681;53.254;10.398;2022-07-03T06:00:34;2.33;;;1.97;;
13230;SDS011;6681;53.254;10.398;2022-07-03T06:03:00;1.80;;;1.70;;
13230;SDS011;6681;53.254;10.398;2022-07-03T06:05:27;2.40;;;2.07;;
13230;SDS011;6681;53.254;10.398;2022-07-03T06:07:53;3.07;;;2.27;;
13230;SDS011;6681;53.254;10.398;2022-07-03T06:10:19;2.07;;;1.60;;
13230;SDS011;6681;53.254;10.398;2022-07-03T06:12:45;1.73;;;1.50;;
13230;SDS011;6681;53.254;10.398;2022-07-03T06:15:10;1.20;;;1.10;;
13230;SDS011;6681;53.254;10.398;2022-07-03T06:17:36;2.53;;;1.47;;
13230;SDS011;6681;53.254;10.398;2022-07-03T06:20:05;3.57;;;1.70;;
13230;SDS011;6681;53.254;10.398;2022-07-03T06:22:32;4.87;;;2.13;;
13230;SDS011;6681;53.254;10.398;2022-07-03T06:24:58;4.53;;;1.97;;
13230;SDS011;6681;53.254;10.398;2022-07-03T06:27:24;4.47;;;1.67;;
13230;SDS011;6681;53.254;10.398;2022-07-03T06:29:50;2.43;;;2.03;;
13230;SDS011;6681;53.254;10.398;2022-07-03T06:32:16;4.87;;;1.40;;
13230;SDS011;6681;53.254;10.398;2022-07-03T06:34:42;1.67;;;1.57;;
13230;SDS011;6681;53.254;10.398;2022-07-03T06:37:08;1.73;;;1.50;;
13230;SDS011;6681;53.254;10.398;2022-07-03T06:39:37;3.00;;;1.63;;
13230;SDS011;6681;53.254;10.398;2022-07-03T06:42:03;3.80;;;3.07;;
13230;SDS011;6681;53.254;10.398;2022-07-03T06:44:29;6.47;;;2.00;;
13230;SDS011;6681;53.254;10.398;2022-07-03T06:46:55;2.63;;;1.47;;
13230;SDS011;6681;53.254;10.398;2022-07-03T06:49:21;2.77;;;1.83;;
13230;SDS011;6681;53.254;10.398;2022-07-03T06:51:47;1.63;;;1.53;;
13230;SDS011;6681;53.254;10.398;2022-07-03T06:54:13;2.90;;;1.93;;
13230;SDS011;6681;53.254;10.398;2022-07-03T06:56:39;2.43;;;2.23;;
13230;SDS011;6681;53.254;10.398;2022-07-03T06:59:04;1.77;;;1.67;;
13230;SDS011;6681;53.254;10.398;2022-07-03T07:01:30;2.37;;;1.77;;
13230;SDS011;6681;53.254;10.398;2022-07-03T07:03:56;3.30;;;1.43;;
13230;SDS011;6681;53.254;10.398;2022-07-03T07:06:22;6.37;;;1.70;;
13230;SDS011;6681;53.254;10.398;2022-07-03T07:08:48;1.50;;;1.40;;
13230;SDS011;6681;53.254;10.398;2022-07-03T07:11:13;2.07;;;1.63;;
13230;SDS011;6681;53.254;10.398;2022-07-03T07:13:39;2.10;;;1.30;;
13230;SDS011;6681;53.254;10.398;2022-07-03T07:16:05;1.70;;;1.60;;
13230;SDS011;6681;53.254;10.398;2022-07-03T07:18:31;1.63;;;1.53;;
13230;SDS011;6681;53.254;10.398;2022-07-03T07:20:57;1.70;;;1.60;;
13230;SDS011;6681;53.254;10.398;2022-07-03T07:23:22;2.13;;;1.50;;
13230;SDS011;6681;53.254;10.398;2022-07-03T07:25:48;1.67;;;1.57;;
13230;SDS011;6681;53.254;10.398;2022-07-03T07:28:14;1.47;;;1.20;;
13230;SDS011;6681;53.254;10.398;2022-07-03T07:30:39;1.30;;;1.20;;
13230;SDS011;6681;53.254;10.398;2022-07-03T07:33:05;2.60;;;1.40;;
13230;SDS011;6681;53.254;10.398;2022-07-03T07:35:32;2.60;;;1.90;;
13230;SDS011;6681;53.254;10.398;2022-07-03T07:37:58;3.53;;;1.33;;
13230;SDS011;6681;53.254;10.398;2022-07-03T07:40:23;4.47;;;1.37;;
13230;SDS011;6681;53.254;10.398;2022-07-03T07:42:49;2.10;;;1.63;;
13230;SDS011;6681;53.254;10.398;2022-07-03T07:45:15;1.07;;;1.00;;
13230;SDS011;6681;53.254;10.398;2022-07-03T07:47:41;2.03;;;1.50;;
13230;SDS011;6681;53.254;10.398;2022-07-03T07:50:07;1.20;;;1.10;;
13230;SDS011;6681;53.254;10.398;2022-07-03T07:52:33;1.53;;;1.43;;
13230;SDS011;6681;53.254;10.398;2022-07-03T07:54:59;1.10;;;1.10;;
13230;SDS011;6681;53.254;10.398;2022-07-03T07:57:24;1.23;;;0.97;;
13230;SDS011;6681;53.254;10.398;2022-07-03T07:59:50;1.67;;;1.57;;
13230;SDS011;6681;53.254;10.398;2022-07-03T08:02:16;1.97;;;1.20;;
13230;SDS011;6681;53.254;10.398;2022-07-03T08:05:00;1.50;;;1.40;;
13230;SDS011;6681;53.254;10.398;2022-07-03T08:07:44;2.10;;;1.63;;
13230;SDS011;6681;53.254;10.398;2022-07-03T08:10:10;1.37;;;1.37;;
13230;SDS011;6681;53.254;10.398;2022-07-03T08:12:35;2.87;;;1.03;;
13230;SDS011;6681;53.254;10.398;2022-07-03T08:15:01;1.47;;;1.37;;
13230;SDS011;6681;53.254;10.398;2022-07-03T08:17:27;1.30;;;1.30;;
13230;SDS011;6681;53.254;10.398;2022-07-03T08:19:52;1.03;;;1.03;;
13230;SDS011;6681;53.254;10.398;2022-07-03T08:22:18;1.00;;;0.90;;
13230;SDS011;6681;53.254;10.398;2022-07-03T08:24:43;3.73;;;0.80;;
13230;SDS011;6681;53.254;10.398;2022-07-03T08:27:09;3.03;;;0.80;;
13230;SDS011;6681;53.254;10.398;2022-07-03T08:29:35;2.57;;;1.10;;
13230;SDS011;6681;53.254;10.398;2022-07-03T08:32:00;1.47;;;1.37;;
13230;SDS011;6681;53.254;10.398;2022-07-03T08:34:26;1.40;;;1.30;;
13230;SDS011;6681;53.254;10.398;2022-07-03T08:36:52;1.43;;;1.33;;
13230;SDS011;6681;53.254;10.398;2022-07-03T08:39:17;1.00;;;1.00;;
13230;SDS011;6681;53.254;10.398;2022-07-03T08:41:43;0.73;;;0.73;;
13230;SDS011;6681;53.254;10.398;2022-07-03T08:44:11;1.77;;;1.07;;
13230;SDS011;6681;53.254;10.398;2022-07-03T08:46:38;1.73;;;1.63;;
13230;SDS011;6681;53.254;10.398;2022-07-03T08:49:05;1.17;;;1.07;;
13230;SDS011;6681;53.254;10.398;2022-07-03T08:51:32;1.40;;;1.10;;
13230;SDS011;6681;53.254;10.398;2022-07-03T08:53:59;2.63;;;1.47;;
13230;SDS011;6681;53.254;10.398;2022-07-03T08:56:28;4.87;;;1.10;;
13230;SDS011;6681;53.254;10.398;2022-07-03T08:58:57;1.40;;;1.17;;
13230;SDS011;6681;53.254;10.398;2022-07-03T09:01:23;1.90;;;0.90;;
13230;SDS011;6681;53.254;10.398;2022-07-03T09:03:49;2.73;;;0.90;;
13230;SDS011;6681;53.254;10.398;2022-07-03T09:06:17;1.93;;;1.23;;
13230;SDS011;6681;53.254;10.398;2022-07-03T09:08:43;1.43;;;1.00;;
13230;SDS011;6681;53.254;10.398;2022-07-03T09:11:10;1.90;;;0.87;;
13230;SDS011;6681;53.254;10.398;2022-07-03T09:13:35;1.80;;;0.90;;
13230;SDS011;6681;53.254;10.398;2022-07-03T09:16:01;2.27;;;1.00;;
13230;SDS011;6681;53.254;10.398;2022-07-03T09:18:37;2.00;;;0.90;;
13230;SDS011;6681;53.254;10.398;2022-07-03T09:21:05;1.53;;;1.43;;
13230;SDS011;6681;53.254;10.398;2022-07-03T09:23:37;1.03;;;0.93;;
13230;SDS011;6681;53.254;10.398;2022-07-03T09:26:04;2.33;;;1.13;;
13230;SDS011;6681;53.254;10.398;2022-07-03T09:31:28;1.33;;;0.80;;
13230;SDS011;6681;53.254;10.398;2022-07-03T09:34:05;1.90;;;1.10;;
13230;SDS011;6681;53.254;10.398;2022-07-03T09:39:17;1.33;;;1.25;;
13230;SDS011;6681;53.254;10.398;2022-07-03T09:42:07;1.42;;;1.33;;
13230;SDS011;6681;53.254;10.398;2022-07-03T09:49:52;2.13;;;1.93;;
13230;SDS011;6681;53.254;10.398;2022-07-03T09:52:28;0.87;;;0.87;;
13230;SDS011;6681;53.254;10.398;2022-07-03T09:57:36;2.20;;;0.90;;
13230;SDS011;6681;53.254;10.398;2022-07-03T10:00:10;1.43;;;0.90;;
13230;SDS011;6681;53.254;10.398;2022-07-03T10:02:50;1.07;;;1.03;;
13230;SDS011;6681;53.254;10.398;2022-07-03T10:05:41;2.83;;;1.30;;
13230;SDS011;6681;53.254;10.398;2022-07-03T10:08:11;0.93;;;0.93;;
13230;SDS011;6681;53.254;10.398;2022-07-03T10:10:49;0.90;;;0.90;;
13230;SDS011;6681;53.254;10.398;2022-07-03T10:13:15;1.23;;;1.17;;
13230;SDS011;6681;53.254;10.398;2022-07-03T10:15:41;1.17;;;1.10;;
13230;SDS011;6681;53.254;10.398;2022-07-03T10:18:08;1.10;;;0.83;;
13230;SDS011;6681;53.254;10.398;2022-07-03T10:20:39;1.98;;;0.93;;
13230;SDS011;6681;53.254;10.398;2022-07-03T10:23:05;0.90;;;0.90;;
13230;SDS011;6681;53.254;10.398;2022-07-03T10:25:31;0.88;;;0.88;;
13230;SDS011;6681;53.254;10.398;2022-07-03T10:27:57;4.13;;;1.77;;
13230;SDS011;6681;53.254;10.398;2022-07-03T10:30:24;1.70;;;1.03;;
13230;SDS011;6681;53.254;10.398;2022-07-03T10:32:52;0.90;;;0.90;;
13230;SDS011;6681;53.254;10.398;2022-07-03T10:35:24;2.15;;;1.25;;
13230;SDS011;6681;53.254;10.398;2022-07-03T10:43:27;3.75;;;1.20;;
13230;SDS011;6681;53.254;10.398;2022-07-03T10:46:23;2.38;;;0.90;;
13230;SDS011;6681;53.254;10.398;2022-07-03T10:49:00;2.00;;;1.15;;
13230;SDS011;6681;53.254;10.398;2022-07-03T10:54:35;1.35;;;0.82;;
13230;SDS011;6681;53.254;10.398;2022-07-03T10:57:15;2.42;;;0.90;;
13230;SDS011;6681;53.254;10.398;2022-07-03T11:25:54;1.02;;;0.70;;
13230;SDS011;6681;53.254;10.398;2022-07-03T11:41:41;1.27;;;0.90;;
13230;SDS011;6681;53.254;10.398;2022-07-03T11:44:09;7.28;;;1.20;;
13230;SDS011;6681;53.254;10.398;2022-07-03T11:46:40;1.77;;;1.00;;
13230;SDS011;6681;53.254;10.398;2022-07-03T11:49:15;2.15;;;1.50;;
13230;SDS011;6681;53.254;10.398;2022-07-03T11:51:52;3.47;;;0.85;;
13230;SDS011;6681;53.254;10.398;2022-07-03T11:54:20;1.30;;;0.93;;
13230;SDS011;6681;53.254;10.398;2022-07-03T11:56:46;0.80;;;0.80;;
13230;SDS011;6681;53.254;10.398;2022-07-03T11:59:11;1.17;;;1.17;;
13230;SDS011;6681;53.254;10.398;2022-07-03T12:01:38;1.20;;;1.20;;
13230;SDS011;6681;53.254;10.398;2022-07-03T12:06:44;1.08;;;0.93;;
13230;SDS011;6681;53.254;10.398;2022-07-03T12:09:36;0.60;;;0.60;;
13230;SDS011;6681;53.254;10.398;2022-07-03T12:12:04;4.32;;;1.27;;
13230;SDS011;6681;53.254;10.398;2022-07-03T12:14:48;0.57;;;0.55;;
13230;SDS011;6681;53.254;10.398;2022-07-03T12:17:18;1.60;;;1.17;;
13230;SDS011;6681;53.254;10.398;2022-07-03T12:19:46;0.70;;;0.65;;
13230;SDS011;6681;53.254;10.398;2022-07-03T12:22:32;0.75;;;0.40;;
13230;SDS011;6681;53.254;10.398;2022-07-03T12:25:09;1.85;;;0.70;;
13230;SDS011;6681;53.254;10.398;2022-07-03T12:27:40;0.45;;;0.45;;
13230;SDS011;6681;53.254;10.398;2022-07-03T12:30:07;1.15;;;0.50;;
13230;SDS011;6681;53.254;10.398;2022-07-03T12:32:44;0.75;;;0.52;;
13230;SDS011;6681;53.254;10.398;2022-07-03T12:35:11;0.50;;;0.50;;
13230;SDS011;6681;53.254;10.398;2022-07-03T12:37:40;0.70;;;0.55;;
13230;SDS011;6681;53.254;10.398;2022-07-03T12:40:09;1.05;;;0.93;;
13230;SDS011;6681;53.254;10.398;2022-07-03T12:42:42;1.23;;;0.73;;
13230;SDS011;6681;53.254;10.398;2022-07-03T12:45:11;0.73;;;0.70;;
13230;SDS011;6681;53.254;10.398;2022-07-03T12:47:38;0.82;;;0.68;;
13230;SDS011;6681;53.254;10.398;2022-07-03T12:50:04;2.10;;;0.70;;
13230;SDS011;6681;53.254;10.398;2022-07-03T12:52:33;0.57;;;0.50;;
13230;SDS011;6681;53.254;10.398;2022-07-03T12:55:21;0.60;;;0.60;;
13230;SDS011;6681;53.254;10.398;2022-07-03T12:58:13;0.90;;;0.50;;
13230;SDS011;6681;53.254;10.398;2022-07-03T13:00:59;1.85;;;1.17;;
13230;SDS011;6681;53.254;10.398;2022-07-03T13:03:25;0.68;;;0.65;;
13230;SDS011;6681;53.254;10.398;2022-07-03T13:05:55;0.35;;;0.35;;
13230;SDS011;6681;53.254;10.398;2022-07-03T13:08:20;2.40;;;0.73;;
13230;SDS011;6681;53.254;10.398;2022-07-03T13:10:54;0.77;;;0.77;;
13230;SDS011;6681;53.254;10.398;2022-07-03T13:13:21;1.55;;;0.65;;
13230;SDS011;6681;53.254;10.398;2022-07-03T13:15:46;0.80;;;0.52;;
13230;SDS011;6681;53.254;10.398;2022-07-03T13:18:12;1.38;;;1.10;;
13230;SDS011;6681;53.254;10.398;2022-07-03T13:20:38;1.52;;;0.75;;
13230;SDS011;6681;53.254;10.398;2022-07-03T13:23:04;2.55;;;0.75;;
13230;SDS011;6681;53.254;10.398;2022-07-03T13:25:31;1.90;;;0.47;;
13230;SDS011;6681;53.254;10.398;2022-07-03T13:30:35;5.32;;;0.80;;
13230;SDS011;6681;53.254;10.398;2022-07-03T13:33:04;2.65;;;0.60;;
13230;SDS011;6681;53.254;10.398;2022-07-03T13:35:31;1.35;;;0.50;;
13230;SDS011;6681;53.254;10.398;2022-07-03T13:37:57;2.35;;;0.45;;
13230;SDS011;6681;53.254;10.398;2022-07-03T13:40:23;0.40;;;0.40;;
13230;SDS011;6681;53.254;10.398;2022-07-03T13:42:48;1.23;;;0.75;;
13230;SDS011;6681;53.254;10.398;2022-07-03T13:45:14;1.13;;;0.52;;
13230;SDS011;6681;53.254;10.398;2022-07-03T13:47:40;3.28;;;0.55;;
13230;SDS011;6681;53.254;10.398;2022-07-03T13:50:06;1.33;;;0.52;;
13230;SDS011;6681;53.254;10.398;2022-07-03T13:52:31;0.40;;;0.40;;
13230;SDS011;6681;53.254;10.398;2022-07-03T13:54:57;0.30;;;0.30;;
13230;SDS011;6681;53.254;10.398;2022-07-03T13:57:23;1.13;;;0.63;;
13230;SDS011;6681;53.254;10.398;2022-07-03T13:59:48;0.50;;;0.50;;
13230;SDS011;6681;53.254;10.398;2022-07-03T14:02:14;0.80;;;0.80;;
13230;SDS011;6681;53.254;10.398;2022-07-03T14:04:40;0.63;;;0.60;;
13230;SDS011;6681;53.254;10.398;2022-07-03T14:07:06;0.40;;;0.38;;
13230;SDS011;6681;53.254;10.398;2022-07-03T14:09:31;0.50;;;0.50;;
13230;SDS011;6681;53.254;10.398;2022-07-03T14:11:57;1.15;;;0.47;;
13230;SDS011;6681;53.254;10.398;2022-07-03T14:14:24;2.70;;;0.80;;
13230;SDS011;6681;53.254;10.398;2022-07-03T14:16:49;1.48;;;0.50;;
13230;SDS011;6681;53.254;10.398;2022-07-03T14:19:15;1.60;;;0.52;;
13230;SDS011;6681;53.254;10.398;2022-07-03T14:21:41;0.50;;;0.50;;
13230;SDS011;6681;53.254;10.398;2022-07-03T14:24:06;1.25;;;0.80;;
13230;SDS011;6681;53.254;10.398;2022-07-03T14:26:32;1.50;;;0.50;;
13230;SDS011;6681;53.254;10.398;2022-07-03T14:29:17;0.85;;;0.40;;
13230;SDS011;6681;53.254;10.398;2022-07-03T14:32:01;2.30;;;0.60;;
13230;SDS011;6681;53.254;10.398;2022-07-03T14:34:45;1.15;;;0.50;;
13230;SDS011;6681;53.254;10.398;2022-07-03T14:37:10;1.23;;;0.60;;
13230;SDS011;6681;53.254;10.398;2022-07-03T14:39:36;0.70;;;0.70;;
13230;SDS011;6681;53.254;10.398;2022-07-03T14:42:02;0.40;;;0.40;;
13230;SDS011;6681;53.254;10.398;2022-07-03T14:44:28;3.13;;;0.50;;
13230;SDS011;6681;53.254;10.398;2022-07-03T14:46:54;0.98;;;0.40;;
13230;SDS011;6681;53.254;10.398;2022-07-03T14:49:20;2.50;;;0.60;;
13230;SDS011;6681;53.254;10.398;2022-07-03T14:51:46;0.98;;;0.90;;
13230;SDS011;6681;53.254;10.398;2022-07-03T14:54:12;0.55;;;0.55;;
13230;SDS011;6681;53.254;10.398;2022-07-03T14:56:45;1.73;;;1.10;;
13230;SDS011;6681;53.254;10.398;2022-07-03T14:59:16;0.77;;;0.50;;
13230;SDS011;6681;53.254;10.398;2022-07-03T15:02:00;4.47;;;0.68;;
13230;SDS011;6681;53.254;10.398;2022-07-03T15:04:53;1.35;;;0.93;;
13230;SDS011;6681;53.254;10.398;2022-07-03T15:07:18;1.80;;;1.10;;
13230;SDS011;6681;53.254;10.398;2022-07-03T15:12:32;3.15;;;0.57;;
13230;SDS011;6681;53.254;10.398;2022-07-03T15:15:01;1.27;;;0.38;;
13230;SDS011;6681;53.254;10.398;2022-07-03T15:17:27;1.83;;;0.38;;
13230;SDS011;6681;53.254;10.398;2022-07-03T15:19:54;0.80;;;0.50;;
13230;SDS011;6681;53.254;10.398;2022-07-03T15:22:21;2.50;;;1.20;;
13230;SDS011;6681;53.254;10.398;2022-07-03T15:24:49;0.90;;;0.40;;
13230;SDS011;6681;53.254;10.398;2022-07-03T15:27:20;0.45;;;0.40;;
13230;SDS011;6681;53.254;10.398;2022-07-03T15:29:47;3.15;;;0.55;;
13230;SDS011;6681;53.254;10.398;2022-07-03T15:32:14;1.25;;;0.40;;
13230;SDS011;6681;53.254;10.398;2022-07-03T15:34:41;1.00;;;0.63;;
13230;SDS011;6681;53.254;10.398;2022-07-03T15:37:08;0.73;;;0.57;;
13230;SDS011;6681;53.254;10.398;2022-07-03T15:39:58;0.43;;;0.40;;
13230;SDS011;6681;53.254;10.398;2022-07-03T15:45:20;0.60;;;0.40;;
13230;SDS011;6681;53.254;10.398;2022-07-03T15:51:03;1.92;;;0.45;;
13230;SDS011;6681;53.254;10.398;2022-07-03T15:53:36;2.75;;;0.50;;
13230;SDS011;6681;53.254;10.398;2022-07-03T15:56:04;0.45;;;0.45;;
13230;SDS011;6681;53.254;10.398;2022-07-03T15:58:32;1.67;;;0.50;;
13230;SDS011;6681;53.254;10.398;2022-07-03T16:01:05;1.10;;;0.90;;
13230;SDS011;6681;53.254;10.398;2022-07-03T16:03:58;0.82;;;0.82;;
13230;SDS011;6681;53.254;10.398;2022-07-03T16:06:32;1.13;;;0.50;;
13230;SDS011;6681;53.254;10.398;2022-07-03T16:08:59;1.02;;;0.60;;
13230;SDS011;6681;53.254;10.398;2022-07-03T16:11:24;2.25;;;1.52;;
13230;SDS011;6681;53.254;10.398;2022-07-03T16:13:50;1.58;;;0.68;;
13230;SDS011;6681;53.254;10.398;2022-07-03T16:16:20;1.98;;;0.50;;
13230;SDS011;6681;53.254;10.398;2022-07-03T16:18:46;1.02;;;0.93;;
13230;SDS011;6681;53.254;10.398;2022-07-03T16:21:15;0.60;;;0.60;;
13230;SDS011;6681;53.254;10.398;2022-07-03T16:23:43;1.55;;;1.45;;
13230;SDS011;6681;53.254;10.398;2022-07-03T16:26:10;4.80;;;4.40;;
13230;SDS011;6681;53.254;10.398;2022-07-03T16:28:37;0.70;;;0.70;;
13230;SDS011;6681;53.254;10.398;2022-07-03T16:31:05;0.88;;;0.88;;
13230;SDS011;6681;53.254;10.398;2022-07-03T16:33:33;1.42;;;0.40;;
13230;SDS011;6681;53.254;10.398;2022-07-03T16:36:04;0.43;;;0.40;;
13230;SDS011;6681;53.254;10.398;2022-07-03T16:38:57;1.05;;;0.40;;
13230;SDS011;6681;53.254;10.398;2022-07-03T16:41:29;0.90;;;0.68;;
13230;SDS011;6681;53.254;10.398;2022-07-03T16:43:58;1.15;;;0.43;;
13230;SDS011;6681;53.254;10.398;2022-07-03T16:46:28;0.50;;;0.50;;
13230;SDS011;6681;53.254;10.398;2022-07-03T16:48:55;0.73;;;0.73;;